Aviation Digital Data Service (ADDS)

Output produced by METARs form (1259 UTC 24 July 2014)
found at http://www.aviationweather.gov/adds/metars/
 
SEGU 241200Z 19003KT 9999 BKN026 23/19 Q1009 A2981 NOSIG
SEGU 240440Z 2406/2506 22008KT 9999 SCT013 BKN060 
     FM241300 22004KT 9999 FEW020 BKN080 
     FM241800 14005KT 9999 SCT026 
     FM250000 22007KT CAVOK TX30/2419Z TN21/2410Z
       
SEMT 241200Z 18009KT 9999 OVC020 22/20 Q1010
SEMT 240940Z 2412/2512 19010KT 9999 BKN026 
     FM241800 27012KT 9999 SCT030 
     FM242200 19010KT 9999 BKN026 TX29/2419Z TN22/2510Z